Farragut, Iowa
Current Conditions -  °F | °C
As of 8:35 AM on Friday 24 Oct 2014 (Local Time) from KSDA Reporting Station
Haze Haze  
Wind Chill: 59°   Ceiling: Unl
Heat Index: 59°   Visibility: 3mi
Dew Point: 59°   Wind: 7mph
Humidity: 100%   Direction: 190°S
Pressure: 29.98"   Gusts: NA
Location:  40.72°N, 95.48°W
Report Text: KSDA 241335Z AUTO 19006KT 3SM BR CLR 15/15 A2998 RMK AO2
Loading
Personal Weather Stations






























Interactive Weather Map
Tropical Storm Tracking
New forecast layout! Learn more

10-Day Weather Forecast

Advertisements
Track Severe Weather on mobile